Terminal Aerodrome Forecast
Issued by NWS

Home | Current Version | Previous Version | Text Only | Print | Product List | Glossary Off
Versions: 1 2 3 4 5 6 7 8 9 10 11 12 13 14

000
FTUS43 KBIS 182300
TAFJMS
TAF
KJMS 182335Z 1900/1924 13025G38KT P6SM BKN150
     FM190300 12021G28KT P6SM VCSH SCT060 BKN120
     FM191000 21014KT P6SM BKN120
     FM191300 27020G28KT P6SM SCT120=

USA.gov is the U.S. government's official web portal to all federal, state and local government web resources and services.